Time;durP1;ratioP1;P1;durP2;ratioP2;P2;SDS_P1;SDS_P2;PMS_P1;PMS_P2;Temp;Humidity;BMP_temperature;BMP_pressure;BME280_temperature;BME280_humidity;BME280_pressure;Samples;Min_cycle;Max_cycle;Signal;HPM_P1;HPM_P2
2022/08/21 00:00:23;;;;;;;3.70;2.47;;;;;;;16.85;75.57;96839.22;4969716;28;20082;-80
2022/08/21 00:02:54;;;;;;;3.83;1.88;;;;;;;16.84;75.53;96843.69;4970705;29;20055;-80
2022/08/21 00:05:23;;;;;;;3.67;2.10;;;;;;;16.80;75.50;96845.13;4969055;28;20082;-80
2022/08/21 00:07:51;;;;;;;2.97;1.90;;;;;;;16.80;75.50;96836.44;4969634;29;20077;-80
2022/08/21 00:10:19;;;;;;;2.65;2.08;;;;;;;16.79;75.54;96832.97;4968526;28;20047;-80
2022/08/21 00:12:48;;;;;;;4.07;1.98;;;;;;;16.78;75.50;96827.91;4968834;28;20497;-80
2022/08/21 00:15:20;;;;;;;2.50;1.83;;;;;;;16.76;75.58;96832.56;4968160;28;20082;-79
2022/08/21 00:17:48;;;;;;;2.22;1.88;;;;;;;16.76;75.47;96825.47;4968584;29;20078;-80
2022/08/21 00:20:17;;;;;;;3.17;1.80;;;;;;;16.77;75.89;96827.09;4969460;28;20054;-79
2022/08/21 00:22:46;;;;;;;2.65;2.17;;;;;;;16.75;75.61;96826.50;4968008;28;20055;-80
2022/08/21 00:25:15;;;;;;;3.75;2.15;;;;;;;16.75;75.27;96821.25;4968076;29;20127;-80
2022/08/21 00:27:46;;;;;;;5.20;1.80;;;;;;;16.75;74.97;96818.59;4967944;28;20043;-79
2022/08/21 00:30:17;;;;;;;1.65;1.55;;;;;;;16.73;75.06;96825.13;4966860;28;20092;-80
2022/08/21 00:32:52;;;;;;;2.38;1.80;;;;;;;16.69;75.15;96825.53;4969032;28;20057;-80
2022/08/21 00:35:22;;;;;;;4.00;2.10;;;;;;;16.68;75.50;96823.94;4967654;28;20043;-80
2022/08/21 00:37:50;;;;;;;1.92;1.70;;;;;;;16.73;75.75;96819.84;4969348;29;20421;-80
2022/08/21 00:40:23;;;;;;;4.68;3.17;;;;;;;16.74;75.26;96816.97;4967950;28;20079;-80
2022/08/21 00:42:51;;;;;;;4.57;2.40;;;;;;;16.74;74.95;96822.25;4968021;29;20093;-80
2022/08/21 00:45:20;;;;;;;1.95;1.85;;;;;;;16.72;75.28;96819.00;4969143;29;20105;-80
2022/08/21 00:47:48;;;;;;;2.38;2.17;;;;;;;16.78;77.84;96823.44;4968089;29;20505;-79
2022/08/21 00:50:17;;;;;;;2.45;1.85;;;;;;;16.79;75.66;96816.31;4968678;28;20058;-81
2022/08/21 00:52:50;;;;;;;3.70;1.90;;;;;;;16.74;75.26;96816.97;4967069;28;20115;-80
2022/08/21 00:55:20;;;;;;;5.22;2.53;;;;;;;16.70;74.78;96821.06;4966552;29;20501;-80
2022/08/21 00:57:54;;;;;;;3.40;2.00;;;;;;;16.67;75.28;96813.59;4966196;28;20074;-80
2022/08/21 01:00:27;;;;;;;3.92;1.58;;;;;;;16.66;74.98;96819.88;4964902;28;20058;-80
2022/08/21 01:02:55;;;;;;;14.23;2.15;;;;;;;16.64;74.70;96814.03;4965127;28;20054;-80
2022/08/21 01:05:26;;;;;;;10.75;2.10;;;;;;;16.61;74.28;96817.88;4965090;29;20051;-80
2022/08/21 01:07:56;;;;;;;5.85;1.63;;;;;;;16.60;74.38;96810.22;4966956;29;20087;-80
2022/08/21 01:10:24;;;;;;;4.32;1.50;;;;;;;16.57;75.06;96813.25;4974496;28;20591;-79
2022/08/21 01:12:54;;;;;;;1.65;1.55;;;;;;;16.60;77.01;96805.75;4979436;28;20028;-80
2022/08/21 01:15:25;;;;;;;3.13;2.47;;;;;;;16.63;76.09;96809.78;4978951;28;20055;-80
2022/08/21 01:17:53;;;;;;;3.10;1.80;;;;;;;16.65;76.05;96813.00;4978484;28;20047;-79
2022/08/21 01:20:21;;;;;;;2.30;1.85;;;;;;;16.61;74.80;96812.63;4974879;28;20055;-80
2022/08/21 01:23:00;;;;;;;2.22;2.03;;;;;;;16.55;74.39;96802.97;4965302;29;20494;-80
2022/08/21 01:25:28;;;;;;;3.50;2.17;;;;;;;16.51;74.42;96811.47;4965190;28;20059;-80
2022/08/21 01:27:56;;;;;;;3.72;2.28;;;;;;;16.47;74.80;96800.59;4965931;28;20085;-80
2022/08/21 01:30:26;;;;;;;3.40;1.90;;;;;;;16.47;74.98;96805.84;4964958;28;20067;-79
2022/08/21 01:32:56;;;;;;;3.13;2.35;;;;;;;16.47;74.85;96797.94;4964292;29;20091;-79
2022/08/21 01:35:24;;;;;;;3.85;1.90;;;;;;;16.46;74.71;96804.22;4964881;28;20059;-80
2022/08/21 01:37:51;;;;;;;6.53;2.22;;;;;;;16.44;74.57;96790.47;4965277;29;20047;-79
2022/08/21 01:40:21;;;;;;;2.67;1.80;;;;;;;16.42;74.93;96790.69;4976363;28;20400;-79
2022/08/21 01:42:49;;;;;;;3.80;1.88;;;;;;;16.41;74.61;96793.53;4982513;28;20033;-79
2022/08/21 01:45:16;;;;;;;2.72;2.33;;;;;;;16.40;74.77;96795.38;4974452;29;20139;-80
2022/08/21 01:47:45;;;;;;;2.33;1.90;;;;;;;16.44;75.76;96798.38;4970433;29;20141;-80
2022/08/21 01:50:15;;;;;;;3.15;2.00;;;;;;;16.53;77.79;96793.63;4967987;28;20402;-80
2022/08/21 01:52:43;;;;;;;3.97;2.03;;;;;;;16.56;76.34;96798.50;4967575;29;20054;-80
2022/08/21 01:55:12;;;;;;;3.28;2.10;;;;;;;16.55;75.41;96807.41;4969582;28;20055;-80
2022/08/21 01:57:41;;;;;;;4.28;2.38;;;;;;;16.49;74.86;96803.81;4968562;29;20083;-80
2022/08/21 02:00:12;;;;;;;2.15;1.83;;;;;;;16.46;74.80;96802.41;4967046;28;20119;-80
2022/08/21 02:02:41;;;;;;;2.88;2.03;;;;;;;16.49;76.05;96798.53;4966710;29;20110;-79
2022/08/21 02:05:11;;;;;;;2.72;2.35;;;;;;;16.52;76.70;96797.31;4967969;29;20047;-80
2022/08/21 02:07:41;;;;;;;4.90;2.38;;;;;;;16.60;79.64;96799.69;4968789;29;20094;-80
2022/08/21 02:10:11;;;;;;;3.33;2.15;;;;;;;16.66;79.56;96788.25;4966941;28;20079;-80
2022/08/21 02:12:40;;;;;;;3.58;2.40;;;;;;;16.67;78.17;96789.88;4967069;29;20138;-80
2022/08/21 02:15:09;;;;;;;4.22;2.55;;;;;;;16.71;80.48;96785.81;4967955;28;20077;-80
2022/08/21 02:17:42;;;;;;;3.45;2.22;;;;;;;16.70;76.92;96776.28;4968523;28;20047;-80
2022/08/21 02:20:12;;;;;;;4.50;2.42;;;;;;;16.68;77.23;96780.94;4968033;28;20047;-80
2022/08/21 02:22:39;;;;;;;5.13;2.65;;;;;;;16.67;78.29;96779.34;4966942;29;20084;-80
2022/08/21 02:25:08;;;;;;;4.30;2.38;;;;;;;16.70;80.56;96784.19;4967145;29;20102;-80
2022/08/21 02:27:39;;;;;;;2.05;1.92;;;;;;;16.66;77.99;96783.00;4964324;29;20083;-80
2022/08/21 02:30:11;;;;;;;3.33;2.00;;;;;;;16.62;77.88;96782.63;4966788;23;20482;-76
2022/08/21 02:32:39;;;;;;;2.40;2.20;;;;;;;16.59;77.04;96776.97;4937927;29;20150;-76
2022/08/21 02:35:09;;;;;;;4.95;1.88;;;;;;;16.63;79.24;96775.53;4937675;29;20095;-76
2022/08/21 02:37:44;;;;;;;2.58;2.13;;;;;;;16.68;80.94;96779.16;4937855;29;20107;-75
2022/08/21 02:40:13;;;;;;;2.97;2.00;;;;;;;16.65;78.04;96776.94;4937228;29;20506;-76
2022/08/21 02:42:40;;;;;;;3.67;2.35;;;;;;;16.66;80.59;96775.09;4936233;29;20059;-76
2022/08/21 02:45:10;;;;;;;4.63;2.17;;;;;;;16.64;77.08;96777.16;4935808;29;20090;-76
2022/08/21 02:47:39;;;;;;;3.38;2.03;;;;;;;16.60;78.67;96781.25;4935958;29;20131;-76
2022/08/21 02:50:08;;;;;;;3.45;2.10;;;;;;;16.61;80.28;96782.84;4935487;29;20083;-76
2022/08/21 02:52:36;;;;;;;4.07;2.45;;;;;;;16.62;80.96;96776.56;4935102;29;20135;-76
2022/08/21 02:55:05;;;;;;;4.25;2.38;;;;;;;16.56;77.01;96778.22;4935804;29;20098;-76
2022/08/21 02:57:32;;;;;;;2.35;1.90;;;;;;;16.51;78.12;96779.88;4936509;29;20569;-76
2022/08/21 03:00:00;;;;;;;3.95;2.22;;;;;;;16.46;76.41;96776.09;4936287;29;20130;-76
2022/08/21 03:02:29;;;;;;;2.67;2.20;;;;;;;16.44;76.98;96783.41;4937193;29;20055;-75
2022/08/21 03:04:56;;;;;;;2.22;2.03;;;;;;;16.41;77.53;96775.91;4936953;29;20135;-76
2022/08/21 03:07:24;;;;;;;2.15;1.95;;;;;;;16.45;79.27;96776.28;4937196;29;20139;-77
2022/08/21 03:09:51;;;;;;;3.22;2.45;;;;;;;16.46;79.16;96773.47;4936865;29;20126;-74
2022/08/21 03:12:22;;;;;;;4.30;2.45;;;;;;;16.52;79.00;96770.97;4936769;29;20131;-74
2022/08/21 03:14:50;;;;;;;3.58;2.45;;;;;;;16.45;76.44;96774.47;4937057;29;20087;-74
2022/08/21 03:17:18;;;;;;;3.03;2.45;;;;;;;16.46;78.62;96775.25;4936969;29;20083;-74
2022/08/21 03:19:57;;;;;;;2.90;2.55;;;;;;;16.46;80.36;96776.09;4939587;29;20048;-75
2022/08/21 03:22:25;;;;;;;2.70;2.20;;;;;;;16.55;81.03;96776.63;4950374;29;20517;-74
2022/08/21 03:24:53;;;;;;;3.78;2.60;;;;;;;16.63;81.75;96770.28;4943594;29;20135;-74
2022/08/21 03:27:21;;;;;;;3.40;3.10;;;;;;;16.71;82.35;96779.75;4937779;29;20135;-74
2022/08/21 03:29:49;;;;;;;3.53;2.35;;;;;;;16.67;79.99;96772.25;4937157;29;20043;-74
2022/08/21 03:32:17;;;;;;;3.65;2.50;;;;;;;16.70;81.37;96771.00;4937484;29;20131;-74
2022/08/21 03:34:44;;;;;;;2.63;2.40;;;;;;;16.69;81.25;96774.69;4936398;29;20434;-73
2022/08/21 03:37:14;;;;;;;2.30;2.10;;;;;;;16.70;78.62;96776.28;4936626;29;20058;-74
2022/08/21 03:39:42;;;;;;;3.60;2.22;;;;;;;16.70;79.31;96776.28;4936082;29;20050;-74
2022/08/21 03:42:10;;;;;;;2.90;2.60;;;;;;;16.72;79.15;96770.81;4936262;29;20496;-74
2022/08/21 03:44:39;;;;;;;2.50;2.20;;;;;;;16.74;77.96;96780.09;4936357;29;20524;-74
2022/08/21 03:47:07;;;;;;;3.30;2.80;;;;;;;16.77;79.77;96784.94;4936685;29;20079;-74
2022/08/21 03:49:34;;;;;;;3.53;2.55;;;;;;;16.78;78.72;96778.66;4935923;29;20544;-75
2022/08/21 03:52:03;;;;;;;4.40;2.75;;;;;;;16.80;79.71;96779.28;4935861;29;20533;-74
2022/08/21 03:54:33;;;;;;;4.93;2.53;;;;;;;16.83;80.33;96781.47;4936440;29;20425;-74
2022/08/21 03:57:00;;;;;;;3.78;2.70;;;;;;;16.84;80.45;96780.44;4936424;29;20433;-74
2022/08/21 03:59:28;;;;;;;2.92;2.55;;;;;;;16.85;80.82;96782.03;4935915;29;20048;-74
2022/08/21 04:01:58;;;;;;;3.03;2.83;;;;;;;16.84;80.66;96790.19;4935855;29;20098;-74
2022/08/21 04:04:28;;;;;;;3.95;3.00;;;;;;;16.84;80.60;96792.81;4935289;29;20183;-74
2022/08/21 04:06:56;;;;;;;3.10;2.60;;;;;;;16.86;81.41;96796.06;4936122;29;20154;-74
2022/08/21 04:09:25;;;;;;;2.95;2.50;;;;;;;16.84;80.68;96796.25;4935532;29;20087;-74
2022/08/21 04:11:54;;;;;;;3.15;2.50;;;;;;;16.85;80.30;96797.06;4935765;29;20043;-74
2022/08/21 04:14:22;;;;;;;3.80;2.50;;;;;;;16.83;78.51;96799.91;4935843;29;20134;-74
2022/08/21 04:16:50;;;;;;;3.40;2.63;;;;;;;16.84;79.16;96796.25;4935979;29;20140;-74
2022/08/21 04:19:17;;;;;;;4.43;2.47;;;;;;;16.82;78.40;96793.03;4935271;29;20498;-74
2022/08/21 04:21:45;;;;;;;5.80;3.05;;;;;;;16.83;79.04;96799.91;4935549;29;20056;-74
2022/08/21 04:24:12;;;;;;;5.45;2.92;;;;;;;16.82;77.51;96798.31;4935612;29;20062;-74
2022/08/21 04:26:40;;;;;;;4.03;3.13;;;;;;;16.83;80.01;96799.09;4935849;29;20122;-74
2022/08/21 04:29:09;;;;;;;3.63;3.33;;;;;;;16.84;79.96;96804.16;4935184;29;20479;-74
2022/08/21 04:31:37;;;;;;;5.47;3.80;;;;;;;16.84;81.14;96804.16;4935101;29;20095;-74
2022/08/21 04:34:05;;;;;;;4.00;2.67;;;;;;;16.80;77.46;96812.72;4935513;29;20675;-74
2022/08/21 04:36:33;;;;;;;7.95;3.58;;;;;;;16.80;78.51;96818.78;4935238;29;20138;-74
2022/08/21 04:39:01;;;;;;;3.22;2.90;;;;;;;16.79;78.20;96817.16;4935325;29;20510;-74
2022/08/21 04:41:30;;;;;;;3.33;3.03;;;;;;;16.79;78.84;96824.22;4934775;29;20589;-75
2022/08/21 04:43:58;;;;;;;5.30;3.63;;;;;;;16.79;80.19;96824.22;4935377;29;20086;-75
2022/08/21 04:46:26;;;;;;;6.20;3.45;;;;;;;16.79;80.59;96824.22;4935001;29;20053;-74
2022/08/21 04:48:54;;;;;;;5.53;3.05;;;;;;;16.79;80.55;96829.50;4935658;29;20130;-74
2022/08/21 04:51:25;;;;;;;5.85;3.30;;;;;;;16.80;80.75;96833.78;4934958;29;20079;-74
2022/08/21 04:53:56;;;;;;;3.40;3.10;;;;;;;16.78;80.56;96828.69;4935392;29;20063;-74
2022/08/21 04:56:31;;;;;;;3.58;3.00;;;;;;;16.79;80.27;96834.75;4935084;29;20298;-73
2022/08/21 04:59:03;;;;;;;4.32;3.13;;;;;;;16.78;79.85;96833.16;4934836;29;20098;-74
2022/08/21 05:01:37;;;;;;;4.28;3.35;;;;;;;16.76;78.49;96836.00;4934741;29;20095;-74
2022/08/21 05:04:08;;;;;;;11.65;3.60;;;;;;;16.75;79.57;96842.31;4934852;29;20059;-74
2022/08/21 05:06:39;;;;;;;3.53;3.22;;;;;;;16.77;80.25;96842.91;4935080;29;20051;-74
2022/08/21 05:09:09;;;;;;;4.63;3.50;;;;;;;16.75;79.80;96839.69;4934789;29;20524;-74
2022/08/21 05:11:37;;;;;;;5.00;3.10;;;;;;;16.75;79.18;96844.94;4934401;29;20052;-74
2022/08/21 05:14:05;;;;;;;6.78;3.00;;;;;;;16.76;79.73;96845.75;4934714;29;20055;-74
2022/08/21 05:16:34;;;;;;;3.83;3.40;;;;;;;16.75;78.72;96850.22;4934466;29;20087;-74
2022/08/21 05:19:04;;;;;;;3.88;3.28;;;;;;;16.72;77.64;96845.34;4934776;29;20047;-74
2022/08/21 05:21:31;;;;;;;5.80;3.90;;;;;;;16.75;79.92;96847.56;4934101;29;20051;-74
2022/08/21 05:24:00;;;;;;;4.35;3.15;;;;;;;16.67;76.11;96845.19;4934433;29;20058;-74
2022/08/21 05:26:28;;;;;;;3.90;3.00;;;;;;;16.60;75.40;96849.72;4934944;29;20469;-74
2022/08/21 05:28:55;;;;;;;4.28;3.63;;;;;;;16.63;78.48;96851.91;4934311;29;20048;-74
2022/08/21 05:31:24;;;;;;;4.63;3.53;;;;;;;16.64;77.28;96858.81;4934366;29;20048;-74
2022/08/21 05:33:53;;;;;;;5.47;3.42;;;;;;;16.66;79.50;96856.75;4934491;29;20086;-74
2022/08/21 05:36:22;;;;;;;3.47;3.17;;;;;;;16.71;80.33;96853.50;4934498;29;20119;-74
2022/08/21 05:38:49;;;;;;;6.75;3.17;;;;;;;16.71;80.03;96850.88;4934462;29;20098;-74
2022/08/21 05:41:17;;;;;;;5.40;4.20;;;;;;;16.72;80.47;96849.81;4933775;29;20079;-74
2022/08/21 05:43:45;;;;;;;4.32;3.35;;;;;;;16.69;79.98;96851.06;4933850;29;20505;-74
2022/08/21 05:46:12;;;;;;;4.65;3.63;;;;;;;16.71;81.08;96851.66;4934500;29;20085;-74
2022/08/21 05:48:40;;;;;;;5.43;3.13;;;;;;;16.70;80.50;96850.03;4934023;29;20059;-74
2022/08/21 05:51:11;;;;;;;4.38;3.97;;;;;;;16.74;81.63;96851.22;4934212;29;20162;-74
2022/08/21 05:53:39;;;;;;;3.67;3.25;;;;;;;16.79;82.00;96853.22;4934463;29;20094;-74
2022/08/21 05:56:07;;;;;;;3.92;3.53;;;;;;;16.75;79.45;96850.22;4941320;29;20124;-75
2022/08/21 05:58:35;;;;;;;5.32;3.47;;;;;;;16.77;79.74;96848.16;4945910;29;20060;-74
2022/08/21 06:01:04;;;;;;;4.15;3.75;;;;;;;16.80;79.89;96847.75;4934997;29;20087;-73
2022/08/21 06:03:34;;;;;;;4.93;4.15;;;;;;;16.84;80.87;96848.16;4933743;29;20052;-73
2022/08/21 06:06:03;;;;;;;5.55;4.15;;;;;;;16.88;80.63;96849.34;4934324;29;20051;-74
2022/08/21 06:08:32;;;;;;;4.75;3.30;;;;;;;16.89;77.87;96854.38;4937212;29;20497;-74
2022/08/21 06:11:01;;;;;;;4.15;3.75;;;;;;;16.93;79.65;96851.31;4937291;28;20126;-74
2022/08/21 06:13:28;;;;;;;4.13;3.83;;;;;;;16.97;80.04;96853.31;4945438;29;20455;-73
2022/08/21 06:16:06;;;;;;;6.10;4.43;;;;;;;17.03;80.41;96851.63;4934908;29;20086;-74
2022/08/21 06:18:33;;;;;;;8.98;4.03;;;;;;;17.05;80.50;96849.56;4943227;29;20087;-73
2022/08/21 06:21:01;;;;;;;3.72;3.42;;;;;;;17.10;81.09;96855.03;4933433;29;20443;-74
2022/08/21 06:23:29;;;;;;;3.67;3.28;;;;;;;17.14;80.37;96853.53;4933984;29;20135;-74
2022/08/21 06:26:01;;;;;;;4.78;3.60;;;;;;;17.18;80.27;96846.81;4934776;29;20074;-74
2022/08/21 06:28:30;;;;;;;4.00;3.50;;;;;;;17.21;78.52;96849.03;4936584;29;20073;-73
2022/08/21 06:30:57;;;;;;;3.22;2.83;;;;;;;17.21;75.92;96846.41;4937366;29;20086;-74
2022/08/21 06:33:25;;;;;;;5.30;3.70;;;;;;;17.28;78.01;96844.50;4937579;29;20051;-73
2022/08/21 06:35:59;;;;;;;6.22;5.47;;;;;;;17.36;78.37;96845.22;4937704;29;20055;-74
2022/08/21 06:38:27;;;;;;;5.63;4.65;;;;;;;17.39;77.49;96850.06;4937303;29;20139;-73
2022/08/21 06:40:55;;;;;;;4.85;3.63;;;;;;;17.41;74.14;96853.31;4936783;29;20135;-74
2022/08/21 06:43:25;;;;;;;6.47;3.70;;;;;;;17.48;74.35;96859.31;4943863;29;20048;-74
2022/08/21 06:46:05;;;;;;;7.25;6.30;;;;;;;17.56;76.36;96859.03;4937594;29;20078;-74
2022/08/21 06:48:33;;;;;;;4.55;3.35;;;;;;;17.63;76.24;96851.03;4936999;29;20086;-74
2022/08/21 06:51:01;;;;;;;3.35;2.80;;;;;;;17.67;75.53;96850.38;4936978;29;20095;-74
2022/08/21 06:53:29;;;;;;;4.22;3.50;;;;;;;17.74;74.24;96862.69;4936780;29;20517;-74
2022/08/21 06:55:56;;;;;;;3.88;2.92;;;;;;;17.81;75.76;96855.50;4937136;29;20138;-74
2022/08/21 06:58:25;;;;;;;4.80;2.97;;;;;;;17.86;72.35;96858.28;4937127;29;20138;-74
2022/08/21 07:00:54;;;;;;;3.88;2.55;;;;;;;17.91;71.61;96863.75;4937016;29;20075;-74
2022/08/21 07:03:29;;;;;;;3.95;2.78;;;;;;;17.96;70.65;96861.22;4937079;29;20461;-75
2022/08/21 07:05:58;;;;;;;4.32;2.65;;;;;;;18.05;70.25;96865.16;4937851;29;20134;-74
2022/08/21 07:08:28;;;;;;;5.05;2.70;;;;;;;18.11;69.44;96864.28;4938152;28;20521;-75
2022/08/21 07:10:58;;;;;;;5.63;2.35;;;;;;;18.17;68.35;96865.25;4935332;29;20652;-75
2022/08/21 07:13:27;;;;;;;4.00;3.28;;;;;;;18.25;70.54;96859.63;4935942;29;20099;-75
2022/08/21 07:15:55;;;;;;;5.93;2.92;;;;;;;18.32;69.27;96857.72;4938490;29;20050;-76
2022/08/21 07:18:29;;;;;;;4.53;2.88;;;;;;;18.39;67.92;96854.16;4943062;29;20127;-76
2022/08/21 07:20:57;;;;;;;5.72;3.55;;;;;;;18.45;68.14;96856.69;4936691;29;20048;-75
2022/08/21 07:23:28;;;;;;;3.63;3.00;;;;;;;18.51;67.74;96853.16;4936915;29;20146;-76
2022/08/21 07:25:56;;;;;;;10.30;8.40;;;;;;;18.62;67.93;96858.72;4937033;29;20593;-76
2022/08/21 07:28:24;;;;;;;5.05;3.40;;;;;;;18.70;67.42;96851.25;4937030;29;20056;-76
2022/08/21 07:30:55;;;;;;;5.63;3.58;;;;;;;18.81;67.00;96851.53;4936989;29;20522;-76
2022/08/21 07:33:24;;;;;;;3.72;3.00;;;;;;;18.89;66.90;96849.38;4936660;29;20054;-78
2022/08/21 07:35:54;;;;;;;4.25;3.08;;;;;;;18.99;67.08;96848.00;4937621;29;20130;-77
2022/08/21 07:38:22;;;;;;;10.07;2.80;;;;;;;19.07;66.57;96845.81;4937187;29;20130;-75
2022/08/21 07:40:52;;;;;;;4.40;2.78;;;;;;;19.15;66.52;96847.28;4935421;29;20061;-76
2022/08/21 07:43:21;;;;;;;4.07;3.00;;;;;;;19.24;65.16;96845.94;4936288;29;20079;-76
2022/08/21 07:45:50;;;;;;;5.28;2.85;;;;;;;19.33;64.18;96839.25;4936161;29;20075;-76
2022/08/21 07:48:18;;;;;;;3.00;2.70;;;;;;;19.42;64.94;96842.34;4936174;29;20061;-77
2022/08/21 07:50:46;;;;;;;11.93;3.50;;;;;;;19.51;64.16;96837.50;4936123;29;20054;-77
2022/08/21 07:53:14;;;;;;;5.75;3.30;;;;;;;19.62;64.17;96839.31;4937488;29;20082;-78
2022/08/21 07:55:42;;;;;;;6.20;2.90;;;;;;;19.72;63.48;96833.44;4936846;29;20151;-76
2022/08/21 07:58:09;;;;;;;6.15;3.22;;;;;;;19.83;63.27;96831.81;4936203;29;20533;-77
2022/08/21 08:00:37;;;;;;;7.57;3.22;;;;;;;19.91;61.61;96837.53;4935829;29;20082;-77
2022/08/21 08:03:04;;;;;;;5.20;3.13;;;;;;;20.02;60.62;96830.59;4936228;29;20079;-77
2022/08/21 08:05:36;;;;;;;8.02;3.45;;;;;;;20.13;59.90;96831.59;4936097;29;20414;-77
2022/08/21 08:08:04;;;;;;;6.82;3.17;;;;;;;20.23;60.35;96831.78;4936200;29;20055;-77
2022/08/21 08:10:32;;;;;;;5.72;3.58;;;;;;;20.31;59.76;96830.59;4935832;29;20091;-77
2022/08/21 08:12:59;;;;;;;6.75;5.07;;;;;;;20.41;58.97;96825.47;4936351;29;20131;-78
2022/08/21 08:15:29;;;;;;;14.65;9.55;;;;;;;20.52;58.61;96823.81;4936016;29;20094;-77
2022/08/21 08:18:00;;;;;;;6.00;4.22;;;;;;;20.60;57.96;96818.16;4955857;29;20114;-77
2022/08/21 08:20:29;;;;;;;4.10;3.70;;;;;;;20.70;57.65;96826.25;4938637;29;20083;-78
2022/08/21 08:22:58;;;;;;;5.22;3.42;;;;;;;20.79;57.27;96824.00;4939205;29;20048;-78
2022/08/21 08:25:27;;;;;;;7.40;4.10;;;;;;;20.88;57.31;96819.09;4936521;29;20075;-77
2022/08/21 08:28:04;;;;;;;6.15;3.67;;;;;;;20.97;56.44;96815.81;4917090;29;20095;-76
2022/08/21 08:30:43;;;;;;;8.82;5.45;;;;;;;21.08;56.72;96814.13;4925459;29;20055;-77
2022/08/21 08:33:11;;;;;;;10.85;4.88;;;;;;;21.19;57.00;96812.41;4950289;29;20044;-76
2022/08/21 08:35:39;;;;;;;6.53;3.95;;;;;;;21.31;56.47;96815.75;4942943;29;20051;-77
2022/08/21 08:38:10;;;;;;;5.70;4.22;;;;;;;21.45;55.67;96815.41;4936540;29;20059;-77
2022/08/21 08:40:43;;;;;;;6.18;3.58;;;;;;;21.54;55.48;96813.97;4934938;29;20134;-77
2022/08/21 08:43:13;;;;;;;4.63;3.63;;;;;;;21.63;55.22;96812.47;4935558;29;20048;-77
2022/08/21 08:45:46;;;;;;;7.45;6.05;;;;;;;21.68;56.75;96809.88;4935002;29;20529;-77
2022/08/21 08:48:20;;;;;;;8.50;6.18;;;;;;;21.74;54.42;96814.19;4935791;29;20052;-77
2022/08/21 08:50:50;;;;;;;5.85;5.07;;;;;;;21.83;54.54;96811.13;4933919;29;20532;-77
2022/08/21 08:53:24;;;;;;;5.22;3.90;;;;;;;21.91;54.70;96813.31;4935471;29;20064;-77
2022/08/21 08:55:53;;;;;;;5.43;4.30;;;;;;;22.00;54.73;96809.97;4935389;29;20079;-77
2022/08/21 08:58:24;;;;;;;6.65;4.13;;;;;;;22.09;53.65;96805.03;4935210;29;20058;-78
2022/08/21 09:00:54;;;;;;;7.10;4.63;;;;;;;22.17;55.02;96811.72;4935086;29;20051;-76
2022/08/21 09:03:27;;;;;;;6.15;3.70;;;;;;;22.26;54.20;96809.44;4991558;23;20320;-79
2022/08/21 09:06:31;;;;;;;4.78;4.03;;;;;;;22.33;53.50;96807.41;4970146;28;20043;-78
2022/08/21 09:20:57;;;;;;;5.15;3.65;;;;;;;22.73;53.17;96784.88;4918093;29;20048;-80
2022/08/21 09:45:36;;;;;;;3.95;2.70;;;;;;;23.44;52.54;96777.34;4974831;28;20062;-80
2022/08/21 09:48:12;;;;;;;5.63;3.17;;;;;;;23.53;51.12;96780.31;4959289;28;20083;-80
2022/08/21 09:50:42;;;;;;;4.72;3.20;;;;;;;23.59;50.27;96767.81;4959701;28;20516;-80
2022/08/21 09:53:19;;;;;;;4.05;3.20;;;;;;;23.68;50.61;96768.94;4946910;28;20139;-80
2022/08/21 09:58:41;;;;;;;3.58;2.65;;;;;;;23.85;49.68;96766.88;4942547;29;20125;-83
2022/08/21 10:01:17;;;;;;;3.80;2.90;;;;;;;23.95;50.52;96773.28;4944038;29;20083;-83
2022/08/21 10:03:46;;;;;;;6.32;2.78;;;;;;;24.03;49.93;96762.91;4951497;29;20550;-82
2022/08/21 10:06:34;;;;;;;4.28;2.92;;;;;;;24.13;49.31;96764.78;4958038;28;20040;-80
2022/08/21 10:09:09;;;;;;;4.13;2.72;;;;;;;24.21;50.08;96764.25;4959538;29;20055;-80
2022/08/21 10:11:55;;;;;;;2.75;2.42;;;;;;;24.34;49.31;96764.81;4959249;29;20044;-80
2022/08/21 10:14:38;;;;;;;3.40;2.22;;;;;;;24.45;47.14;96758.41;4954083;29;20052;-80
2022/08/21 10:17:18;;;;;;;5.63;2.40;;;;;;;24.53;44.04;96765.88;4971430;28;20051;-81
2022/08/21 10:20:09;;;;;;;5.88;2.08;;;;;;;24.54;40.31;96759.50;4956466;29;20055;-80
2022/08/21 10:22:50;;;;;;;4.00;1.92;;;;;;;24.54;40.69;96761.38;4960759;29;20059;-80
2022/08/21 10:25:27;;;;;;;13.30;9.53;;;;;;;24.57;42.71;96756.28;4958835;29;20052;-80
2022/08/21 10:28:01;;;;;;;3.67;2.33;;;;;;;24.62;40.78;96758.97;4950038;28;20059;-81
2022/08/21 10:30:39;;;;;;;4.90;2.42;;;;;;;24.66;40.65;96753.88;4945886;29;20494;-80
2022/08/21 10:33:26;;;;;;;5.85;2.10;;;;;;;24.72;41.22;96757.38;4946630;29;20143;-80
2022/08/21 10:36:03;;;;;;;3.42;2.03;;;;;;;24.79;41.05;96752.53;4952491;29;20087;-80
2022/08/21 10:38:59;;;;;;;3.63;2.10;;;;;;;24.87;41.41;96754.69;4951422;29;20055;-80
2022/08/21 10:42:03;;;;;;;3.28;2.00;;;;;;;24.94;41.18;96751.72;4943481;29;20146;-76
2022/08/21 10:44:39;;;;;;;5.72;2.60;;;;;;;24.96;41.50;96741.59;4939703;29;20051;-79
2022/08/21 10:47:14;;;;;;;9.25;5.35;;;;;;;25.02;43.67;96740.50;4940575;29;20478;-78
2022/08/21 10:49:56;;;;;;;5.10;3.08;;;;;;;25.10;41.78;96742.59;4939669;29;20126;-78
2022/08/21 10:52:36;;;;;;;5.35;2.90;;;;;;;25.15;41.31;96733.81;4939801;29;20079;-80
2022/08/21 10:55:09;;;;;;;3.70;2.45;;;;;;;25.18;40.03;96733.25;4943729;29;20052;-80
2022/08/21 10:57:44;;;;;;;4.55;2.47;;;;;;;25.19;40.06;96729.50;4941847;29;20082;-81
2022/08/21 11:00:15;;;;;;;2.95;2.20;;;;;;;25.18;40.24;96718.03;4940038;29;20051;-80
2022/08/21 11:02:49;;;;;;;3.50;2.15;;;;;;;25.20;40.73;96729.25;4942911;29;20525;-80
2022/08/21 11:05:26;;;;;;;4.07;2.50;;;;;;;25.21;39.86;96725.53;4941215;29;20142;-80
2022/08/21 11:07:57;;;;;;;5.47;2.83;;;;;;;25.17;39.60;96720.97;4943886;29;20079;-79
2022/08/21 11:10:30;;;;;;;8.10;2.40;;;;;;;25.18;40.38;96723.34;4949149;29;20501;-80
2022/08/21 11:15:49;;;;;;;7.00;2.50;;;;;;;25.25;40.66;96718.59;5742580;23;20259;-81
2022/08/21 11:18:37;;;;;;;4.55;3.03;;;;;;;25.29;40.89;96714.25;4981514;28;20122;-80
2022/08/21 11:21:34;;;;;;;4.80;2.40;;;;;;;25.35;40.55;96722.28;4974648;28;20614;-79
2022/08/21 11:24:15;;;;;;;4.10;2.38;;;;;;;25.37;40.31;96720.94;4961809;28;20055;-79
2022/08/21 11:26:48;;;;;;;4.87;2.83;;;;;;;25.42;39.85;96715.56;4970972;28;20055;-80
2022/08/21 11:29:22;;;;;;;5.55;3.70;;;;;;;25.49;40.63;96712.56;4977597;28;20066;-80
2022/08/21 11:32:02;;;;;;;4.13;2.83;;;;;;;25.52;39.99;96705.88;4978024;28;20043;-79
2022/08/21 11:34:42;;;;;;;4.05;2.30;;;;;;;25.57;40.10;96703.22;4980312;28;20035;-82
2022/08/21 11:37:22;;;;;;;3.90;2.33;;;;;;;25.60;40.66;96697.31;4980573;28;20058;-79
2022/08/21 11:39:57;;;;;;;4.18;2.50;;;;;;;25.65;39.54;96689.28;4980573;28;20043;-79
2022/08/21 11:42:36;;;;;;;2.90;1.75;;;;;;;25.72;38.71;96694.31;4981330;28;20035;-77
2022/08/21 11:45:16;;;;;;;4.95;2.60;;;;;;;25.75;38.85;96688.41;4980380;28;20046;-78
2022/08/21 11:47:55;;;;;;;3.67;2.53;;;;;;;25.78;38.37;96687.84;4977453;28;20079;-78
2022/08/21 11:50:27;;;;;;;5.03;2.53;;;;;;;25.79;37.81;96690.25;4976528;28;20143;-79
2022/08/21 11:53:11;;;;;;;5.75;3.15;;;;;;;25.80;38.02;96686.50;4979930;28;20051;-80
2022/08/21 11:55:44;;;;;;;3.65;2.08;;;;;;;25.82;37.34;96695.06;4978904;28;20062;-79
2022/08/21 11:58:17;;;;;;;5.03;2.47;;;;;;;25.83;37.06;96693.97;4972096;28;20062;-79
2022/08/21 12:00:50;;;;;;;3.65;2.13;;;;;;;25.80;37.41;96691.84;4973074;28;20078;-80
2022/08/21 12:03:26;;;;;;;3.83;1.98;;;;;;;25.73;38.85;96686.00;4976490;28;20051;-79
2022/08/21 12:06:06;;;;;;;2.83;2.10;;;;;;;25.64;37.64;96687.66;4960615;29;20060;-80
2022/08/21 12:08:38;;;;;;;3.05;1.83;;;;;;;25.62;38.25;96689.81;4975540;28;20043;-79
2022/08/21 12:11:09;;;;;;;4.85;2.35;;;;;;;25.59;38.85;96680.47;4978081;28;20066;-78
2022/08/21 12:13:40;;;;;;;4.05;2.42;;;;;;;25.54;38.22;96677.03;4977112;28;20031;-79
2022/08/21 12:16:11;;;;;;;4.38;2.17;;;;;;;25.49;37.72;96673.34;4976579;28;20131;-79
2022/08/21 12:18:39;;;;;;;2.38;1.92;;;;;;;25.40;38.28;96672.31;4977272;28;20058;-79
2022/08/21 12:21:21;;;;;;;4.68;2.25;;;;;;;25.39;38.50;96670.72;4976585;28;20035;-79
2022/08/21 12:24:01;;;;;;;3.10;1.90;;;;;;;25.43;38.87;96671.75;4977092;28;20120;-79
2022/08/21 12:26:31;;;;;;;4.40;2.90;;;;;;;25.48;38.94;96676.28;4976576;28;20034;-79
2022/08/21 12:29:11;;;;;;;5.03;2.35;;;;;;;25.50;38.67;96666.13;4978287;28;20063;-79
2022/08/21 12:31:50;;;;;;;4.47;2.53;;;;;;;25.54;38.84;96667.16;4979448;28;20086;-80